sensor_id;sensor_type;location;lat;lon;timestamp;temperature;humidity
2300;DHT22;1158;48.750;9.078;2023-11-21T00:01:45;6.40;99.90
2300;DHT22;1158;48.750;9.078;2023-11-21T00:04:13;6.40;99.90
2300;DHT22;1158;48.750;9.078;2023-11-21T00:06:42;6.40;99.90
2300;DHT22;1158;48.750;9.078;2023-11-21T00:09:12;6.40;99.90
2300;DHT22;1158;48.750;9.078;2023-11-21T00:11:40;6.40;99.90
2300;DHT22;1158;48.750;9.078;2023-11-21T00:14:07;6.40;99.90
2300;DHT22;1158;48.750;9.078;2023-11-21T00:16:34;6.50;99.90
2300;DHT22;1158;48.750;9.078;2023-11-21T00:19:01;6.50;99.90
2300;DHT22;1158;48.750;9.078;2023-11-21T00:21:28;6.50;99.90
2300;DHT22;1158;48.750;9.078;2023-11-21T00:23:56;6.60;99.90
2300;DHT22;1158;48.750;9.078;2023-11-21T00:26:22;6.50;99.90
2300;DHT22;1158;48.750;9.078;2023-11-21T00:28:49;6.50;99.90
2300;DHT22;1158;48.750;9.078;2023-11-21T00:31:16;6.50;99.90
2300;DHT22;1158;48.750;9.078;2023-11-21T00:33:43;6.50;99.90
2300;DHT22;1158;48.750;9.078;2023-11-21T00:36:09;6.60;99.90
2300;DHT22;1158;48.750;9.078;2023-11-21T00:38:36;6.60;99.90
2300;DHT22;1158;48.750;9.078;2023-11-21T00:41:06;6.60;99.90
2300;DHT22;1158;48.750;9.078;2023-11-21T00:43:33;6.60;99.90
2300;DHT22;1158;48.750;9.078;2023-11-21T00:46:03;6.50;99.90
2300;DHT22;1158;48.750;9.078;2023-11-21T00:48:30;6.50;99.90
2300;DHT22;1158;48.750;9.078;2023-11-21T00:50:56;6.60;99.90
2300;DHT22;1158;48.750;9.078;2023-11-21T00:53:23;6.60;99.90
2300;DHT22;1158;48.750;9.078;2023-11-21T00:55:50;6.50;99.90
2300;DHT22;1158;48.750;9.078;2023-11-21T00:58:19;6.50;99.90
2300;DHT22;1158;48.750;9.078;2023-11-21T01:00:45;6.60;99.90
2300;DHT22;1158;48.750;9.078;2023-11-21T01:03:14;6.60;99.90
2300;DHT22;1158;48.750;9.078;2023-11-21T01:05:40;6.60;99.90
2300;DHT22;1158;48.750;9.078;2023-11-21T01:08:07;6.70;99.90
2300;DHT22;1158;48.750;9.078;2023-11-21T01:10:34;6.70;99.90
2300;DHT22;1158;48.750;9.078;2023-11-21T01:13:01;6.70;99.90
2300;DHT22;1158;48.750;9.078;2023-11-21T01:15:31;6.70;99.90
2300;DHT22;1158;48.750;9.078;2023-11-21T01:17:57;6.70;99.90
2300;DHT22;1158;48.750;9.078;2023-11-21T01:20:24;6.80;99.90
2300;DHT22;1158;48.750;9.078;2023-11-21T01:22:51;6.80;99.90
2300;DHT22;1158;48.750;9.078;2023-11-21T01:25:19;6.80;99.90
2300;DHT22;1158;48.750;9.078;2023-11-21T01:27:46;6.80;99.90
2300;DHT22;1158;48.750;9.078;2023-11-21T01:30:13;6.80;99.90
2300;DHT22;1158;48.750;9.078;2023-11-21T01:32:41;6.80;99.90
2300;DHT22;1158;48.750;9.078;2023-11-21T01:35:08;6.80;99.90
2300;DHT22;1158;48.750;9.078;2023-11-21T01:37:35;6.80;99.90
2300;DHT22;1158;48.750;9.078;2023-11-21T01:40:03;6.80;99.90
2300;DHT22;1158;48.750;9.078;2023-11-21T01:42:33;6.80;99.90
2300;DHT22;1158;48.750;9.078;2023-11-21T01:45:00;6.80;99.90
2300;DHT22;1158;48.750;9.078;2023-11-21T01:47:30;6.80;99.90
2300;DHT22;1158;48.750;9.078;2023-11-21T01:49:59;6.80;99.90
2300;DHT22;1158;48.750;9.078;2023-11-21T01:52:26;6.70;99.90
2300;DHT22;1158;48.750;9.078;2023-11-21T01:54:53;6.70;99.90
2300;DHT22;1158;48.750;9.078;2023-11-21T01:57:20;6.70;99.90
2300;DHT22;1158;48.750;9.078;2023-11-21T01:59:48;6.70;99.90
2300;DHT22;1158;48.750;9.078;2023-11-21T02:02:15;6.70;99.90
2300;DHT22;1158;48.750;9.078;2023-11-21T02:04:42;6.60;99.90
2300;DHT22;1158;48.750;9.078;2023-11-21T02:07:10;6.60;99.90
2300;DHT22;1158;48.750;9.078;2023-11-21T02:09:37;6.70;99.90
2300;DHT22;1158;48.750;9.078;2023-11-21T02:12:08;6.60;99.90
2300;DHT22;1158;48.750;9.078;2023-11-21T02:14:36;6.70;99.90
2300;DHT22;1158;48.750;9.078;2023-11-21T02:17:03;6.70;99.90
2300;DHT22;1158;48.750;9.078;2023-11-21T02:19:30;6.80;99.90
2300;DHT22;1158;48.750;9.078;2023-11-21T02:21:57;6.70;99.90
2300;DHT22;1158;48.750;9.078;2023-11-21T02:24:29;6.70;99.90
2300;DHT22;1158;48.750;9.078;2023-11-21T02:26:57;6.70;99.90
2300;DHT22;1158;48.750;9.078;2023-11-21T02:29:23;6.70;99.90
2300;DHT22;1158;48.750;9.078;2023-11-21T02:31:54;6.60;99.90
2300;DHT22;1158;48.750;9.078;2023-11-21T02:34:21;6.50;99.90
2300;DHT22;1158;48.750;9.078;2023-11-21T02:36:49;6.50;99.90
2300;DHT22;1158;48.750;9.078;2023-11-21T02:39:16;6.50;99.90
2300;DHT22;1158;48.750;9.078;2023-11-21T02:41:44;6.50;99.90
2300;DHT22;1158;48.750;9.078;2023-11-21T02:44:11;6.50;99.90
2300;DHT22;1158;48.750;9.078;2023-11-21T02:46:38;6.50;99.90
2300;DHT22;1158;48.750;9.078;2023-11-21T02:49:06;6.50;99.90
2300;DHT22;1158;48.750;9.078;2023-11-21T02:51:33;6.60;99.90
2300;DHT22;1158;48.750;9.078;2023-11-21T02:54:00;6.60;99.90
2300;DHT22;1158;48.750;9.078;2023-11-21T02:56:28;6.50;99.90
2300;DHT22;1158;48.750;9.078;2023-11-21T02:58:57;6.50;99.90
2300;DHT22;1158;48.750;9.078;2023-11-21T03:01:24;6.50;99.90
2300;DHT22;1158;48.750;9.078;2023-11-21T03:03:50;6.50;99.90
2300;DHT22;1158;48.750;9.078;2023-11-21T03:06:17;6.50;99.90
2300;DHT22;1158;48.750;9.078;2023-11-21T03:08:44;6.40;99.90
2300;DHT22;1158;48.750;9.078;2023-11-21T03:11:11;6.40;99.90
2300;DHT22;1158;48.750;9.078;2023-11-21T03:13:39;6.40;99.90
2300;DHT22;1158;48.750;9.078;2023-11-21T03:16:08;6.40;99.90
2300;DHT22;1158;48.750;9.078;2023-11-21T03:18:35;6.30;99.90
2300;DHT22;1158;48.750;9.078;2023-11-21T03:21:03;6.30;99.90
2300;DHT22;1158;48.750;9.078;2023-11-21T03:23:29;6.30;99.90
2300;DHT22;1158;48.750;9.078;2023-11-21T03:25:56;6.30;99.90
2300;DHT22;1158;48.750;9.078;2023-11-21T03:28:23;6.40;99.90
2300;DHT22;1158;48.750;9.078;2023-11-21T03:30:50;6.40;99.90
2300;DHT22;1158;48.750;9.078;2023-11-21T03:33:18;6.40;99.90
2300;DHT22;1158;48.750;9.078;2023-11-21T03:35:45;6.40;99.90
2300;DHT22;1158;48.750;9.078;2023-11-21T03:38:12;6.40;99.90
2300;DHT22;1158;48.750;9.078;2023-11-21T03:40:39;6.40;99.90
2300;DHT22;1158;48.750;9.078;2023-11-21T03:43:06;6.40;99.90
2300;DHT22;1158;48.750;9.078;2023-11-21T03:45:32;6.40;99.90
2300;DHT22;1158;48.750;9.078;2023-11-21T03:47:59;6.40;99.90
2300;DHT22;1158;48.750;9.078;2023-11-21T03:50:28;6.40;99.90
2300;DHT22;1158;48.750;9.078;2023-11-21T03:52:55;6.40;99.90
2300;DHT22;1158;48.750;9.078;2023-11-21T03:55:21;6.50;99.90
2300;DHT22;1158;48.750;9.078;2023-11-21T03:57:49;6.50;99.90
2300;DHT22;1158;48.750;9.078;2023-11-21T04:00:17;6.40;99.90
2300;DHT22;1158;48.750;9.078;2023-11-21T04:02:45;6.40;99.90
2300;DHT22;1158;48.750;9.078;2023-11-21T04:05:13;6.50;99.90
2300;DHT22;1158;48.750;9.078;2023-11-21T04:07:41;6.50;99.90
2300;DHT22;1158;48.750;9.078;2023-11-21T04:10:08;6.40;99.90
2300;DHT22;1158;48.750;9.078;2023-11-21T04:12:38;6.50;99.90
2300;DHT22;1158;48.750;9.078;2023-11-21T04:15:05;6.40;99.90
2300;DHT22;1158;48.750;9.078;2023-11-21T04:17:34;6.40;99.90
2300;DHT22;1158;48.750;9.078;2023-11-21T04:20:02;6.40;99.90
2300;DHT22;1158;48.750;9.078;2023-11-21T04:22:28;6.40;99.90
2300;DHT22;1158;48.750;9.078;2023-11-21T04:24:56;6.40;99.90
2300;DHT22;1158;48.750;9.078;2023-11-21T04:27:23;6.40;99.90
2300;DHT22;1158;48.750;9.078;2023-11-21T04:29:50;6.40;99.90
2300;DHT22;1158;48.750;9.078;2023-11-21T04:32:17;6.40;99.90
2300;DHT22;1158;48.750;9.078;2023-11-21T04:34:43;6.40;99.90
2300;DHT22;1158;48.750;9.078;2023-11-21T04:37:10;6.40;99.90
2300;DHT22;1158;48.750;9.078;2023-11-21T04:39:37;6.40;99.90
2300;DHT22;1158;48.750;9.078;2023-11-21T04:42:05;6.40;99.90
2300;DHT22;1158;48.750;9.078;2023-11-21T04:44:32;6.30;99.90
2300;DHT22;1158;48.750;9.078;2023-11-21T04:46:59;6.30;99.90
2300;DHT22;1158;48.750;9.078;2023-11-21T04:49:27;6.30;99.90
2300;DHT22;1158;48.750;9.078;2023-11-21T04:51:53;6.30;99.90
2300;DHT22;1158;48.750;9.078;2023-11-21T04:54:20;6.40;99.90
2300;DHT22;1158;48.750;9.078;2023-11-21T04:56:47;6.40;99.90
2300;DHT22;1158;48.750;9.078;2023-11-21T04:59:15;6.40;99.90
2300;DHT22;1158;48.750;9.078;2023-11-21T05:01:42;6.30;99.90
2300;DHT22;1158;48.750;9.078;2023-11-21T05:04:08;6.30;99.90
2300;DHT22;1158;48.750;9.078;2023-11-21T05:06:35;6.20;99.90
2300;DHT22;1158;48.750;9.078;2023-11-21T05:09:02;6.20;99.90
2300;DHT22;1158;48.750;9.078;2023-11-21T05:11:29;6.20;99.90
2300;DHT22;1158;48.750;9.078;2023-11-21T05:13:55;6.20;99.90
2300;DHT22;1158;48.750;9.078;2023-11-21T05:16:25;6.10;99.90
2300;DHT22;1158;48.750;9.078;2023-11-21T05:18:52;6.20;99.90
2300;DHT22;1158;48.750;9.078;2023-11-21T05:21:21;6.20;99.90
2300;DHT22;1158;48.750;9.078;2023-11-21T05:23:50;6.10;99.90
2300;DHT22;1158;48.750;9.078;2023-11-21T05:26:17;6.10;99.90
2300;DHT22;1158;48.750;9.078;2023-11-21T05:28:43;6.10;99.90
2300;DHT22;1158;48.750;9.078;2023-11-21T05:31:10;6.20;99.90
2300;DHT22;1158;48.750;9.078;2023-11-21T05:33:38;6.20;99.90
2300;DHT22;1158;48.750;9.078;2023-11-21T05:36:06;6.10;99.90
2300;DHT22;1158;48.750;9.078;2023-11-21T05:38:33;6.10;99.90
2300;DHT22;1158;48.750;9.078;2023-11-21T05:41:00;6.10;99.90
2300;DHT22;1158;48.750;9.078;2023-11-21T05:43:27;6.10;99.90
2300;DHT22;1158;48.750;9.078;2023-11-21T05:45:55;6.20;99.90
2300;DHT22;1158;48.750;9.078;2023-11-21T05:48:21;6.20;99.90
2300;DHT22;1158;48.750;9.078;2023-11-21T05:50:50;6.20;99.90
2300;DHT22;1158;48.750;9.078;2023-11-21T05:53:17;6.20;99.90
2300;DHT22;1158;48.750;9.078;2023-11-21T05:55:43;6.20;99.90
2300;DHT22;1158;48.750;9.078;2023-11-21T05:58:10;6.20;99.90
2300;DHT22;1158;48.750;9.078;2023-11-21T06:00:39;6.20;99.90
2300;DHT22;1158;48.750;9.078;2023-11-21T06:03:05;6.20;99.90
2300;DHT22;1158;48.750;9.078;2023-11-21T06:05:33;6.30;99.90
2300;DHT22;1158;48.750;9.078;2023-11-21T06:08:01;6.30;99.90
2300;DHT22;1158;48.750;9.078;2023-11-21T06:10:28;6.20;99.90
2300;DHT22;1158;48.750;9.078;2023-11-21T06:12:55;6.20;99.90
2300;DHT22;1158;48.750;9.078;2023-11-21T06:15:23;6.10;99.90
2300;DHT22;1158;48.750;9.078;2023-11-21T06:17:50;6.10;99.90
2300;DHT22;1158;48.750;9.078;2023-11-21T06:20:18;6.40;99.90
2300;DHT22;1158;48.750;9.078;2023-11-21T06:22:47;6.30;99.90
2300;DHT22;1158;48.750;9.078;2023-11-21T06:25:15;6.10;99.90
2300;DHT22;1158;48.750;9.078;2023-11-21T06:27:44;6.00;99.90
2300;DHT22;1158;48.750;9.078;2023-11-21T06:30:12;6.10;99.90
2300;DHT22;1158;48.750;9.078;2023-11-21T06:32:39;6.10;99.90
2300;DHT22;1158;48.750;9.078;2023-11-21T06:35:07;6.10;99.90
2300;DHT22;1158;48.750;9.078;2023-11-21T06:37:35;6.10;99.90
2300;DHT22;1158;48.750;9.078;2023-11-21T06:40:02;6.10;99.90
2300;DHT22;1158;48.750;9.078;2023-11-21T06:42:32;6.20;99.90
2300;DHT22;1158;48.750;9.078;2023-11-21T06:44:59;6.10;99.90
2300;DHT22;1158;48.750;9.078;2023-11-21T06:47:29;6.10;99.90
2300;DHT22;1158;48.750;9.078;2023-11-21T06:49:56;6.10;99.90
2300;DHT22;1158;48.750;9.078;2023-11-21T06:52:23;6.20;99.90
2300;DHT22;1158;48.750;9.078;2023-11-21T06:54:50;6.20;99.90
2300;DHT22;1158;48.750;9.078;2023-11-21T06:57:17;6.20;99.90
2300;DHT22;1158;48.750;9.078;2023-11-21T06:59:45;6.20;99.90
2300;DHT22;1158;48.750;9.078;2023-11-21T07:02:11;6.20;99.90
2300;DHT22;1158;48.750;9.078;2023-11-21T07:04:38;6.30;99.90
2300;DHT22;1158;48.750;9.078;2023-11-21T07:07:06;6.40;99.90
2300;DHT22;1158;48.750;9.078;2023-11-21T07:09:33;6.40;99.90
2300;DHT22;1158;48.750;9.078;2023-11-21T07:12:00;6.40;99.90
2300;DHT22;1158;48.750;9.078;2023-11-21T07:14:29;6.40;99.90
2300;DHT22;1158;48.750;9.078;2023-11-21T07:16:57;6.40;99.90
2300;DHT22;1158;48.750;9.078;2023-11-21T07:19:24;6.50;99.90
2300;DHT22;1158;48.750;9.078;2023-11-21T07:21:50;6.50;99.90
2300;DHT22;1158;48.750;9.078;2023-11-21T07:24:17;6.50;99.90
2300;DHT22;1158;48.750;9.078;2023-11-21T07:26:44;6.50;99.90
2300;DHT22;1158;48.750;9.078;2023-11-21T07:29:11;6.50;99.90
2300;DHT22;1158;48.750;9.078;2023-11-21T07:31:38;6.50;99.90
2300;DHT22;1158;48.750;9.078;2023-11-21T07:34:07;6.60;99.90
2300;DHT22;1158;48.750;9.078;2023-11-21T07:36:34;6.60;99.90
2300;DHT22;1158;48.750;9.078;2023-11-21T07:39:01;6.60;99.90
2300;DHT22;1158;48.750;9.078;2023-11-21T07:41:28;6.60;99.90
2300;DHT22;1158;48.750;9.078;2023-11-21T07:43:55;6.60;99.90
2300;DHT22;1158;48.750;9.078;2023-11-21T07:46:22;6.70;99.90
2300;DHT22;1158;48.750;9.078;2023-11-21T07:48:49;6.70;99.90
2300;DHT22;1158;48.750;9.078;2023-11-21T07:51:19;6.70;99.90
2300;DHT22;1158;48.750;9.078;2023-11-21T07:53:46;6.70;99.90
2300;DHT22;1158;48.750;9.078;2023-11-21T07:56:12;6.80;99.90
2300;DHT22;1158;48.750;9.078;2023-11-21T07:58:39;6.80;99.90
2300;DHT22;1158;48.750;9.078;2023-11-21T08:01:06;6.80;99.90
2300;DHT22;1158;48.750;9.078;2023-11-21T08:03:33;6.90;99.90
2300;DHT22;1158;48.750;9.078;2023-11-21T08:05:59;6.80;99.90
2300;DHT22;1158;48.750;9.078;2023-11-21T08:08:29;6.80;99.90
2300;DHT22;1158;48.750;9.078;2023-11-21T08:10:57;6.90;99.90
2300;DHT22;1158;48.750;9.078;2023-11-21T08:13:24;6.90;99.90
2300;DHT22;1158;48.750;9.078;2023-11-21T08:15:54;7.00;99.90
2300;DHT22;1158;48.750;9.078;2023-11-21T08:18:21;7.10;99.90
2300;DHT22;1158;48.750;9.078;2023-11-21T08:20:48;7.20;99.90
2300;DHT22;1158;48.750;9.078;2023-11-21T08:23:15;7.20;99.90
2300;DHT22;1158;48.750;9.078;2023-11-21T08:25:44;7.40;99.90
2300;DHT22;1158;48.750;9.078;2023-11-21T08:28:11;7.40;99.90
2300;DHT22;1158;48.750;9.078;2023-11-21T08:30:38;7.60;99.90
2300;DHT22;1158;48.750;9.078;2023-11-21T08:33:05;7.60;99.90
2300;DHT22;1158;48.750;9.078;2023-11-21T08:35:32;7.80;99.90
2300;DHT22;1158;48.750;9.078;2023-11-21T08:37:59;8.00;99.90
2300;DHT22;1158;48.750;9.078;2023-11-21T08:40:26;8.00;99.90
2300;DHT22;1158;48.750;9.078;2023-11-21T08:42:54;8.10;99.90
2300;DHT22;1158;48.750;9.078;2023-11-21T08:45:21;8.30;99.90
2300;DHT22;1158;48.750;9.078;2023-11-21T08:47:48;8.40;99.90
2300;DHT22;1158;48.750;9.078;2023-11-21T08:50:14;8.50;99.90
2300;DHT22;1158;48.750;9.078;2023-11-21T08:52:41;8.40;99.90
2300;DHT22;1158;48.750;9.078;2023-11-21T08:55:08;8.30;99.90
2300;DHT22;1158;48.750;9.078;2023-11-21T08:57:38;8.30;99.90
2300;DHT22;1158;48.750;9.078;2023-11-21T09:00:08;8.30;99.90
2300;DHT22;1158;48.750;9.078;2023-11-21T09:02:37;8.30;99.90
2300;DHT22;1158;48.750;9.078;2023-11-21T09:05:04;8.30;99.90
2300;DHT22;1158;48.750;9.078;2023-11-21T09:07:31;8.20;99.90
2300;DHT22;1158;48.750;9.078;2023-11-21T09:09:58;8.10;99.90
2300;DHT22;1158;48.750;9.078;2023-11-21T09:12:25;8.10;99.90
2300;DHT22;1158;48.750;9.078;2023-11-21T09:14:51;8.20;99.90
2300;DHT22;1158;48.750;9.078;2023-11-21T09:17:19;8.30;99.90
2300;DHT22;1158;48.750;9.078;2023-11-21T09:19:46;8.30;99.90
2300;DHT22;1158;48.750;9.078;2023-11-21T09:22:16;8.50;99.90
2300;DHT22;1158;48.750;9.078;2023-11-21T09:24:43;8.60;99.90
2300;DHT22;1158;48.750;9.078;2023-11-21T09:27:10;8.70;99.90
2300;DHT22;1158;48.750;9.078;2023-11-21T09:29:37;8.70;99.90
2300;DHT22;1158;48.750;9.078;2023-11-21T09:32:05;8.70;99.90
2300;DHT22;1158;48.750;9.078;2023-11-21T09:34:35;8.60;99.90
2300;DHT22;1158;48.750;9.078;2023-11-21T09:37:04;8.60;99.90
2300;DHT22;1158;48.750;9.078;2023-11-21T09:39:32;8.70;99.90
2300;DHT22;1158;48.750;9.078;2023-11-21T09:42:04;8.70;99.90
2300;DHT22;1158;48.750;9.078;2023-11-21T09:44:40;8.60;99.90
2300;DHT22;1158;48.750;9.078;2023-11-21T09:47:10;8.40;99.90
2300;DHT22;1158;48.750;9.078;2023-11-21T09:49:38;8.30;99.90
2300;DHT22;1158;48.750;9.078;2023-11-21T09:52:08;8.20;99.90
2300;DHT22;1158;48.750;9.078;2023-11-21T09:54:35;8.10;99.90
2300;DHT22;1158;48.750;9.078;2023-11-21T09:57:03;8.10;99.90
2300;DHT22;1158;48.750;9.078;2023-11-21T09:59:31;8.10;99.90
2300;DHT22;1158;48.750;9.078;2023-11-21T10:01:58;8.10;99.90
2300;DHT22;1158;48.750;9.078;2023-11-21T10:04:26;8.10;99.90
2300;DHT22;1158;48.750;9.078;2023-11-21T10:06:54;8.10;99.90
2300;DHT22;1158;48.750;9.078;2023-11-21T10:09:21;8.10;99.90
2300;DHT22;1158;48.750;9.078;2023-11-21T10:11:49;8.00;99.90
2300;DHT22;1158;48.750;9.078;2023-11-21T10:14:19;8.00;99.90
2300;DHT22;1158;48.750;9.078;2023-11-21T10:16:48;7.90;99.90
2300;DHT22;1158;48.750;9.078;2023-11-21T10:19:15;7.90;99.90
2300;DHT22;1158;48.750;9.078;2023-11-21T10:21:42;7.90;99.90
2300;DHT22;1158;48.750;9.078;2023-11-21T10:24:11;7.90;99.90
2300;DHT22;1158;48.750;9.078;2023-11-21T10:26:38;8.00;99.90
2300;DHT22;1158;48.750;9.078;2023-11-21T10:29:05;8.00;99.90
2300;DHT22;1158;48.750;9.078;2023-11-21T10:31:32;7.90;99.90
2300;DHT22;1158;48.750;9.078;2023-11-21T10:34:15;7.90;99.90
2300;DHT22;1158;48.750;9.078;2023-11-21T10:36:42;8.00;99.90
2300;DHT22;1158;48.750;9.078;2023-11-21T10:39:14;8.00;99.90
2300;DHT22;1158;48.750;9.078;2023-11-21T10:41:43;8.10;99.90
2300;DHT22;1158;48.750;9.078;2023-11-21T10:44:10;7.90;99.90
2300;DHT22;1158;48.750;9.078;2023-11-21T10:46:40;8.00;99.90
2300;DHT22;1158;48.750;9.078;2023-11-21T10:49:08;8.00;99.90
2300;DHT22;1158;48.750;9.078;2023-11-21T10:51:35;7.90;99.90
2300;DHT22;1158;48.750;9.078;2023-11-21T10:54:01;7.90;99.90
2300;DHT22;1158;48.750;9.078;2023-11-21T10:56:30;7.90;99.90
2300;DHT22;1158;48.750;9.078;2023-11-21T10:59:00;7.90;99.90
2300;DHT22;1158;48.750;9.078;2023-11-21T11:01:28;7.80;99.90
2300;DHT22;1158;48.750;9.078;2023-11-21T11:03:57;7.80;99.90
2300;DHT22;1158;48.750;9.078;2023-11-21T11:06:26;7.80;99.90
2300;DHT22;1158;48.750;9.078;2023-11-21T11:08:54;7.80;99.90
2300;DHT22;1158;48.750;9.078;2023-11-21T11:11:22;7.90;99.90
2300;DHT22;1158;48.750;9.078;2023-11-21T11:13:50;7.80;99.90
2300;DHT22;1158;48.750;9.078;2023-11-21T11:16:18;7.80;99.90
2300;DHT22;1158;48.750;9.078;2023-11-21T11:18:45;7.70;99.90
2300;DHT22;1158;48.750;9.078;2023-11-21T11:21:23;7.70;99.90
2300;DHT22;1158;48.750;9.078;2023-11-21T11:24:11;7.70;99.90
2300;DHT22;1158;48.750;9.078;2023-11-21T11:26:47;7.70;99.90
2300;DHT22;1158;48.750;9.078;2023-11-21T11:29:27;7.70;99.90
2300;DHT22;1158;48.750;9.078;2023-11-21T11:32:07;7.80;99.90
2300;DHT22;1158;48.750;9.078;2023-11-21T11:34:41;7.90;99.90
2300;DHT22;1158;48.750;9.078;2023-11-21T11:37:09;7.90;99.90
2300;DHT22;1158;48.750;9.078;2023-11-21T11:39:37;8.00;99.90
2300;DHT22;1158;48.750;9.078;2023-11-21T11:42:07;8.20;99.90
2300;DHT22;1158;48.750;9.078;2023-11-21T11:44:48;8.40;99.90
2300;DHT22;1158;48.750;9.078;2023-11-21T11:47:20;8.70;99.90
2300;DHT22;1158;48.750;9.078;2023-11-21T11:50:03;8.70;99.90
2300;DHT22;1158;48.750;9.078;2023-11-21T11:52:40;9.00;99.90
2300;DHT22;1158;48.750;9.078;2023-11-21T11:55:08;9.10;99.90
2300;DHT22;1158;48.750;9.078;2023-11-21T11:57:37;9.10;99.90
2300;DHT22;1158;48.750;9.078;2023-11-21T12:00:10;9.20;99.90
2300;DHT22;1158;48.750;9.078;2023-11-21T12:02:41;9.30;99.90
2300;DHT22;1158;48.750;9.078;2023-11-21T12:05:10;9.20;99.90
2300;DHT22;1158;48.750;9.078;2023-11-21T12:07:43;9.20;99.90
2300;DHT22;1158;48.750;9.078;2023-11-21T12:10:12;9.10;99.90
2300;DHT22;1158;48.750;9.078;2023-11-21T12:12:42;8.80;99.90
2300;DHT22;1158;48.750;9.078;2023-11-21T12:15:11;8.80;99.90
2300;DHT22;1158;48.750;9.078;2023-11-21T12:17:38;8.80;99.90
2300;DHT22;1158;48.750;9.078;2023-11-21T12:20:06;8.70;99.90
2300;DHT22;1158;48.750;9.078;2023-11-21T12:22:41;8.70;99.90
2300;DHT22;1158;48.750;9.078;2023-11-21T12:25:08;8.70;99.90
2300;DHT22;1158;48.750;9.078;2023-11-21T12:27:35;8.50;99.90
2300;DHT22;1158;48.750;9.078;2023-11-21T12:30:02;8.40;99.90
2300;DHT22;1158;48.750;9.078;2023-11-21T12:32:31;8.50;99.90
2300;DHT22;1158;48.750;9.078;2023-11-21T12:34:58;8.50;99.90
2300;DHT22;1158;48.750;9.078;2023-11-21T12:37:26;8.30;99.90
2300;DHT22;1158;48.750;9.078;2023-11-21T12:39:53;8.30;99.90
2300;DHT22;1158;48.750;9.078;2023-11-21T12:42:23;8.40;99.90
2300;DHT22;1158;48.750;9.078;2023-11-21T12:45:07;8.40;99.90
2300;DHT22;1158;48.750;9.078;2023-11-21T12:47:36;8.40;99.90
2300;DHT22;1158;48.750;9.078;2023-11-21T12:50:03;8.40;99.90
2300;DHT22;1158;48.750;9.078;2023-11-21T12:52:32;8.40;99.90
2300;DHT22;1158;48.750;9.078;2023-11-21T12:54:59;8.50;99.90
2300;DHT22;1158;48.750;9.078;2023-11-21T12:57:26;8.50;99.90
2300;DHT22;1158;48.750;9.078;2023-11-21T12:59:56;8.40;99.90
2300;DHT22;1158;48.750;9.078;2023-11-21T13:02:26;8.30;99.90
2300;DHT22;1158;48.750;9.078;2023-11-21T13:04:54;8.30;99.90
2300;DHT22;1158;48.750;9.078;2023-11-21T13:07:23;8.30;99.90
2300;DHT22;1158;48.750;9.078;2023-11-21T13:09:52;8.20;99.90
2300;DHT22;1158;48.750;9.078;2023-11-21T13:12:23;8.20;99.90
2300;DHT22;1158;48.750;9.078;2023-11-21T13:14:50;8.10;99.90
2300;DHT22;1158;48.750;9.078;2023-11-21T13:17:17;8.20;99.90
2300;DHT22;1158;48.750;9.078;2023-11-21T13:19:44;8.20;99.90
2300;DHT22;1158;48.750;9.078;2023-11-21T13:22:12;8.10;99.90
2300;DHT22;1158;48.750;9.078;2023-11-21T13:24:39;8.90;99.90
2300;DHT22;1158;48.750;9.078;2023-11-21T13:27:06;8.60;99.90
2300;DHT22;1158;48.750;9.078;2023-11-21T13:29:33;8.20;99.90
2300;DHT22;1158;48.750;9.078;2023-11-21T13:32:01;7.90;99.90
2300;DHT22;1158;48.750;9.078;2023-11-21T13:34:31;7.70;99.90
2300;DHT22;1158;48.750;9.078;2023-11-21T13:36:58;7.60;99.90
2300;DHT22;1158;48.750;9.078;2023-11-21T13:39:28;7.50;99.90
2300;DHT22;1158;48.750;9.078;2023-11-21T13:41:57;7.50;99.90
2300;DHT22;1158;48.750;9.078;2023-11-21T13:44:24;7.60;99.90
2300;DHT22;1158;48.750;9.078;2023-11-21T13:46:59;7.60;99.90
2300;DHT22;1158;48.750;9.078;2023-11-21T13:49:26;7.50;99.90
2300;DHT22;1158;48.750;9.078;2023-11-21T13:51:52;7.60;99.90
2300;DHT22;1158;48.750;9.078;2023-11-21T13:54:20;7.70;99.90
2300;DHT22;1158;48.750;9.078;2023-11-21T13:56:50;7.70;99.90
2300;DHT22;1158;48.750;9.078;2023-11-21T13:59:17;7.80;99.90
2300;DHT22;1158;48.750;9.078;2023-11-21T14:01:47;7.90;99.90
2300;DHT22;1158;48.750;9.078;2023-11-21T14:04:25;7.90;99.90
2300;DHT22;1158;48.750;9.078;2023-11-21T14:07:12;7.80;99.90
2300;DHT22;1158;48.750;9.078;2023-11-21T14:09:48;7.90;99.90
2300;DHT22;1158;48.750;9.078;2023-11-21T14:12:16;7.90;99.90
2300;DHT22;1158;48.750;9.078;2023-11-21T14:14:43;8.00;99.90
2300;DHT22;1158;48.750;9.078;2023-11-21T14:17:11;8.00;99.90
2300;DHT22;1158;48.750;9.078;2023-11-21T14:19:37;7.90;99.90
2300;DHT22;1158;48.750;9.078;2023-11-21T14:22:06;7.90;99.90
2300;DHT22;1158;48.750;9.078;2023-11-21T14:24:33;8.00;99.90
2300;DHT22;1158;48.750;9.078;2023-11-21T14:26:59;8.00;99.90
2300;DHT22;1158;48.750;9.078;2023-11-21T14:29:27;7.90;99.90
2300;DHT22;1158;48.750;9.078;2023-11-21T14:31:55;7.80;99.90
2300;DHT22;1158;48.750;9.078;2023-11-21T14:34:23;7.70;99.90
2300;DHT22;1158;48.750;9.078;2023-11-21T14:36:52;7.70;99.90
2300;DHT22;1158;48.750;9.078;2023-11-21T14:39:18;7.80;99.90
2300;DHT22;1158;48.750;9.078;2023-11-21T14:41:49;7.80;99.90
2300;DHT22;1158;48.750;9.078;2023-11-21T14:44:15;7.80;99.90
2300;DHT22;1158;48.750;9.078;2023-11-21T14:46:44;7.80;99.90
2300;DHT22;1158;48.750;9.078;2023-11-21T14:49:11;7.70;99.90
2300;DHT22;1158;48.750;9.078;2023-11-21T14:51:45;7.60;99.90
2300;DHT22;1158;48.750;9.078;2023-11-21T14:54:26;7.60;99.90
2300;DHT22;1158;48.750;9.078;2023-11-21T14:57:06;7.50;99.90
2300;DHT22;1158;48.750;9.078;2023-11-21T14:59:36;7.50;99.90
2300;DHT22;1158;48.750;9.078;2023-11-21T15:02:04;7.50;99.90
2300;DHT22;1158;48.750;9.078;2023-11-21T15:04:41;7.50;99.90
2300;DHT22;1158;48.750;9.078;2023-11-21T15:07:08;7.50;99.90
2300;DHT22;1158;48.750;9.078;2023-11-21T15:09:34;7.50;99.90
2300;DHT22;1158;48.750;9.078;2023-11-21T15:12:06;7.50;99.90
2300;DHT22;1158;48.750;9.078;2023-11-21T15:14:41;7.50;99.90
2300;DHT22;1158;48.750;9.078;2023-11-21T15:17:09;7.50;99.90
2300;DHT22;1158;48.750;9.078;2023-11-21T15:19:37;7.50;99.90
2300;DHT22;1158;48.750;9.078;2023-11-21T15:22:04;7.40;99.90
2300;DHT22;1158;48.750;9.078;2023-11-21T15:24:32;7.40;99.90
2300;DHT22;1158;48.750;9.078;2023-11-21T15:26:59;7.40;99.90
2300;DHT22;1158;48.750;9.078;2023-11-21T15:29:26;7.40;99.90
2300;DHT22;1158;48.750;9.078;2023-11-21T15:31:52;7.40;99.90
2300;DHT22;1158;48.750;9.078;2023-11-21T15:34:23;7.40;99.90
2300;DHT22;1158;48.750;9.078;2023-11-21T15:36:52;7.40;99.90
2300;DHT22;1158;48.750;9.078;2023-11-21T15:39:19;7.40;99.90
2300;DHT22;1158;48.750;9.078;2023-11-21T15:41:51;7.40;99.90
2300;DHT22;1158;48.750;9.078;2023-11-21T15:44:18;7.40;99.90
2300;DHT22;1158;48.750;9.078;2023-11-21T15:46:44;7.40;99.90
2300;DHT22;1158;48.750;9.078;2023-11-21T15:49:11;7.40;99.90
2300;DHT22;1158;48.750;9.078;2023-11-21T15:51:45;7.40;99.90
2300;DHT22;1158;48.750;9.078;2023-11-21T15:54:13;7.40;99.90
2300;DHT22;1158;48.750;9.078;2023-11-21T15:56:39;7.40;99.90
2300;DHT22;1158;48.750;9.078;2023-11-21T15:59:06;7.30;99.90
2300;DHT22;1158;48.750;9.078;2023-11-21T16:01:35;7.40;99.90
2300;DHT22;1158;48.750;9.078;2023-11-21T16:04:07;7.30;99.90
2300;DHT22;1158;48.750;9.078;2023-11-21T16:06:34;7.30;99.90
2300;DHT22;1158;48.750;9.078;2023-11-21T16:09:06;7.30;99.90
2300;DHT22;1158;48.750;9.078;2023-11-21T16:11:41;7.30;99.90
2300;DHT22;1158;48.750;9.078;2023-11-21T16:14:07;7.30;99.90
2300;DHT22;1158;48.750;9.078;2023-11-21T16:16:34;7.30;99.90
2300;DHT22;1158;48.750;9.078;2023-11-21T16:19:01;7.30;99.90
2300;DHT22;1158;48.750;9.078;2023-11-21T16:21:28;7.30;99.90
2300;DHT22;1158;48.750;9.078;2023-11-21T16:23:54;7.30;99.90